Takamine — 7JKK — position and weather

sailwx.info

Track history (hours):
 
Tides and Currents Weather Stations Pressure Air Temp Water Temp Dewpoint Dewpoint Depression Visibility Wind Speed Wind Dir Waves Ship Positions

Takamine

Last reported at 2016-Sep-14 06:25 UTC. Time now 2016-Sep-25 05:33 UTC.
Position N 34°60' E 139°39'.
Warning: this ship's position is 10 days out of date.

Length 333 m; draft 10.2 m.

Type: Ship (hazmat cat A). MMSI: 432832000.

Date/timePositionNaut miles runAvg speedWind from/ knotsBaromVisibWave heightAir tempDewpointWater temp
2016-Sep-14 06:25N 34°60' E 139°39'3311.6
2016-Sep-14 03:33N 35°31' E 139°54'2 0.4
2016-Sep-13 22:32N 35°31' E 139°56'0 0.0
2016-Sep-13 20:32N 35°31' E 139°56'0 0.0
2016-Sep-13 18:32N 35°31' E 139°56'0 0.0
2016-Sep-13 17:32N 35°31' E 139°56'0 0.0
2016-Sep-13 16:29N 35°31' E 139°56'0 0.0
2016-Sep-13 11:29N 35°31' E 139°56'0 0.0
2016-Sep-13 09:32N 35°31' E 139°56'0 0.0
2016-Sep-13 07:32N 35°31' E 139°56'0 0.0
2016-Sep-13 06:32N 35°31' E 139°56'0 0.0
2016-Sep-13 04:29N 35°31' E 139°56'0 0.0
2016-Sep-13 02:32N 35°31' E 139°56'0 0.0
2016-Sep-12 23:29N 35°31' E 139°56'0 0.0
2016-Sep-12 21:29N 35°31' E 139°56'0 0.0
2016-Sep-12 19:29N 35°31' E 139°56'0 0.0
2016-Sep-12 17:20N 35°31' E 139°56'0 0.0
2016-Sep-12 14:29N 35°31' E 139°56'0 0.0
2016-Sep-12 13:29N 35°31' E 139°56'0 0.0
2016-Sep-12 12:32N 35°31' E 139°56'0 0.0
2016-Sep-12 11:29N 35°31' E 139°56'0 0.0
2016-Sep-12 10:23N 35°31' E 139°56'0 0.0
2016-Sep-12 07:11N 35°31' E 139°56'0 0.0
2016-Sep-12 06:32N 35°31' E 139°56'0 0.0
2016-Sep-12 03:23N 35°31' E 139°56'0 0.2
2016-Sep-12 01:33N 35°31' E 139°56'14 7.0
2016-Sep-11 23:33N 35°20' E 139°44'1010.4
2016-Sep-11 22:33N 35°10' E 139°46'9 8.6
2016-Sep-11 21:33N 35°02' E 139°42'10 9.3
2016-Sep-11 20:32N 34°53' E 139°38'  
Track history (hours):
 
Tides and Currents Weather Stations Pressure Air Temp Water Temp Dewpoint Dewpoint Depression Visibility Wind Speed Wind Dir Waves Ship Positions

Takamine

Last reported at 2016-Sep-14 06:25 UTC. Time now 2016-Sep-25 05:33 UTC.
Position N 34°60' E 139°39'.
Warning: this ship's position is 10 days out of date.

Length 333 m; draft 10.2 m.

Type: Ship (hazmat cat A). MMSI: 432832000.

Date/timePositionNaut miles runAvg speedWind from/ knotsBaromVisibWave heightAir tempDewpointWater temp
2016-Sep-14 06:25N 34°60' E 139°39'3311.6
2016-Sep-14 03:33N 35°31' E 139°54'2 0.4
2016-Sep-13 22:32N 35°31' E 139°56'0 0.0
2016-Sep-13 20:32N 35°31' E 139°56'0 0.0
2016-Sep-13 18:32N 35°31' E 139°56'0 0.0
2016-Sep-13 17:32N 35°31' E 139°56'0 0.0
2016-Sep-13 16:29N 35°31' E 139°56'0 0.0
2016-Sep-13 11:29N 35°31' E 139°56'0 0.0
2016-Sep-13 09:32N 35°31' E 139°56'0 0.0
2016-Sep-13 07:32N 35°31' E 139°56'0 0.0
2016-Sep-13 06:32N 35°31' E 139°56'0 0.0
2016-Sep-13 04:29N 35°31' E 139°56'0 0.0
2016-Sep-13 02:32N 35°31' E 139°56'0 0.0
2016-Sep-12 23:29N 35°31' E 139°56'0 0.0
2016-Sep-12 21:29N 35°31' E 139°56'0 0.0
2016-Sep-12 19:29N 35°31' E 139°56'0 0.0
2016-Sep-12 17:20N 35°31' E 139°56'0 0.0
2016-Sep-12 14:29N 35°31' E 139°56'0 0.0
2016-Sep-12 13:29N 35°31' E 139°56'0 0.0
2016-Sep-12 12:32N 35°31' E 139°56'0 0.0
2016-Sep-12 11:29N 35°31' E 139°56'0 0.0
2016-Sep-12 10:23N 35°31' E 139°56'0 0.0
2016-Sep-12 07:11N 35°31' E 139°56'0 0.0
2016-Sep-12 06:32N 35°31' E 139°56'0 0.0
2016-Sep-12 03:23N 35°31' E 139°56'0 0.2
2016-Sep-12 01:33N 35°31' E 139°56'14 7.0
2016-Sep-11 23:33N 35°20' E 139°44'1010.4
2016-Sep-11 22:33N 35°10' E 139°46'9 8.6
2016-Sep-11 21:33N 35°02' E 139°42'10 9.3
2016-Sep-11 20:32N 34°53' E 139°38'  

Dump ship's entire track history